Barefootin' — WCX8351 — position and weather

sailwx.info

Track history (hours):
 
Tides and Currents Weather Stations Pressure Air Temp Water Temp Dewpoint Dewpoint Depression Visibility Wind Speed Wind Dir Waves Ship Positions

Barefootin'

Owner: SADLER, ROBERT K, Green Cove Springs, FL. More information available from US FCC via Universal Licensing System and Coast Guard Vessel Documentation Center.

Last reported at 2017-Oct-31 17:45 UTC. Time now 2017-Nov-20 07:53 UTC.
Position N 34°43' W 076°53'.
Warning: this ship's position is 19 days out of date.

Length 13 m.

Type: Sailing vessel. MMSI: 366832820.

Date/timePositionNaut miles runAvg speedWind from/ knotsBaromVisibWave heightAir tempDewpointWater temp
2017-Oct-31 17:45N 34°43' W 076°53'2 6.4
2017-Oct-31 17:30N 34°43' W 076°51'3 5.9
2017-Oct-31 17:00N 34°43' W 076°47'3 5.7
2017-Oct-31 16:30N 34°43' W 076°44'2 4.8
2017-Oct-31 16:00N 34°44' W 076°41'4 7.0
2017-Oct-31 15:30N 34°48' W 076°41'4 8.0
2017-Oct-31 15:00N 34°52' W 076°41'4 7.2
2017-Oct-31 14:29N 34°55' W 076°40'3 6.3
2017-Oct-31 14:00N 34°58' W 076°41'3 6.0
2017-Oct-31 13:30N 35°01' W 076°40'5 6.3
2017-Oct-31 12:45N 35°03' W 076°35'1 5.4
2017-Oct-31 12:30N 35°05' W 076°34'  
Track history (hours):
 
Tides and Currents Weather Stations Pressure Air Temp Water Temp Dewpoint Dewpoint Depression Visibility Wind Speed Wind Dir Waves Ship Positions

Barefootin'

Owner: SADLER, ROBERT K, Green Cove Springs, FL. More information available from US FCC via Universal Licensing System and Coast Guard Vessel Documentation Center.

Last reported at 2017-Oct-31 17:45 UTC. Time now 2017-Nov-20 07:53 UTC.
Position N 34°43' W 076°53'.
Warning: this ship's position is 19 days out of date.

Length 13 m.

Type: Sailing vessel. MMSI: 366832820.

Date/timePositionNaut miles runAvg speedWind from/ knotsBaromVisibWave heightAir tempDewpointWater temp
2017-Oct-31 17:45N 34°43' W 076°53'2 6.4
2017-Oct-31 17:30N 34°43' W 076°51'3 5.9
2017-Oct-31 17:00N 34°43' W 076°47'3 5.7
2017-Oct-31 16:30N 34°43' W 076°44'2 4.8
2017-Oct-31 16:00N 34°44' W 076°41'4 7.0
2017-Oct-31 15:30N 34°48' W 076°41'4 8.0
2017-Oct-31 15:00N 34°52' W 076°41'4 7.2
2017-Oct-31 14:29N 34°55' W 076°40'3 6.3
2017-Oct-31 14:00N 34°58' W 076°41'3 6.0
2017-Oct-31 13:30N 35°01' W 076°40'5 6.3
2017-Oct-31 12:45N 35°03' W 076°35'1 5.4
2017-Oct-31 12:30N 35°05' W 076°34'  

Dump ship's entire track history